sensor_id;sensor_type;location;lat;lon;timestamp;temperature;humidity
68450;SHT30;67758;39.572;2.652;2023-03-05T00:01:48;8.41;79.63
68450;SHT30;67758;39.572;2.652;2023-03-05T00:04:14;8.37;80.01
68450;SHT30;67758;39.572;2.652;2023-03-05T00:06:40;8.27;80.46
68450;SHT30;67758;39.572;2.652;2023-03-05T00:09:06;8.26;80.68
68450;SHT30;67758;39.572;2.652;2023-03-05T00:11:32;8.30;80.88
68450;SHT30;67758;39.572;2.652;2023-03-05T00:14:00;8.34;80.86
68450;SHT30;67758;39.572;2.652;2023-03-05T00:16:26;8.40;80.75
68450;SHT30;67758;39.572;2.652;2023-03-05T00:18:53;8.49;80.93
68450;SHT30;67758;39.572;2.652;2023-03-05T00:21:28;8.41;80.60
68450;SHT30;67758;39.572;2.652;2023-03-05T00:23:55;8.39;81.03
68450;SHT30;67758;39.572;2.652;2023-03-05T00:26:23;8.33;80.83
68450;SHT30;67758;39.572;2.652;2023-03-05T00:28:50;8.39;80.96
68450;SHT30;67758;39.572;2.652;2023-03-05T00:31:18;8.37;80.95
68450;SHT30;67758;39.572;2.652;2023-03-05T00:33:45;8.32;81.07
68450;SHT30;67758;39.572;2.652;2023-03-05T00:36:10;8.30;81.20
68450;SHT30;67758;39.572;2.652;2023-03-05T00:38:36;8.27;81.26
68450;SHT30;67758;39.572;2.652;2023-03-05T00:41:02;8.27;81.33
68450;SHT30;67758;39.572;2.652;2023-03-05T00:43:28;8.25;81.46
68450;SHT30;67758;39.572;2.652;2023-03-05T00:45:54;8.29;81.45
68450;SHT30;67758;39.572;2.652;2023-03-05T00:48:19;8.22;81.26
68450;SHT30;67758;39.572;2.652;2023-03-05T00:50:47;8.14;81.29
68450;SHT30;67758;39.572;2.652;2023-03-05T00:53:12;8.09;81.50
68450;SHT30;67758;39.572;2.652;2023-03-05T00:55:38;7.95;81.66
68450;SHT30;67758;39.572;2.652;2023-03-05T00:58:04;7.95;81.91
68450;SHT30;67758;39.572;2.652;2023-03-05T01:00:29;7.90;82.14
68450;SHT30;67758;39.572;2.652;2023-03-05T01:02:55;7.88;82.74
68450;SHT30;67758;39.572;2.652;2023-03-05T01:05:21;7.99;82.87
68450;SHT30;67758;39.572;2.652;2023-03-05T01:07:46;8.00;82.76
68450;SHT30;67758;39.572;2.652;2023-03-05T01:10:12;7.96;82.68
68450;SHT30;67758;39.572;2.652;2023-03-05T01:12:38;7.98;82.87
68450;SHT30;67758;39.572;2.652;2023-03-05T01:15:04;8.00;82.82
68450;SHT30;67758;39.572;2.652;2023-03-05T01:17:30;8.03;82.79
68450;SHT30;67758;39.572;2.652;2023-03-05T01:19:55;8.03;82.90
68450;SHT30;67758;39.572;2.652;2023-03-05T01:22:21;8.10;83.17
68450;SHT30;67758;39.572;2.652;2023-03-05T01:24:47;8.06;83.09
68450;SHT30;67758;39.572;2.652;2023-03-05T01:27:12;8.12;83.21
68450;SHT30;67758;39.572;2.652;2023-03-05T01:29:38;8.09;83.07
68450;SHT30;67758;39.572;2.652;2023-03-05T01:32:04;8.09;82.94
68450;SHT30;67758;39.572;2.652;2023-03-05T01:34:29;8.07;83.07
68450;SHT30;67758;39.572;2.652;2023-03-05T01:36:55;7.99;83.02
68450;SHT30;67758;39.572;2.652;2023-03-05T01:39:20;7.96;82.78
68450;SHT30;67758;39.572;2.652;2023-03-05T01:41:46;7.89;82.86
68450;SHT30;67758;39.572;2.652;2023-03-05T01:44:31;7.89;83.24
68450;SHT30;67758;39.572;2.652;2023-03-05T01:46:56;7.92;83.22
68450;SHT30;67758;39.572;2.652;2023-03-05T01:49:25;8.06;83.58
68450;SHT30;67758;39.572;2.652;2023-03-05T01:54:36;8.06;83.56
68450;SHT30;67758;39.572;2.652;2023-03-05T01:57:33;7.99;83.33
68450;SHT30;67758;39.572;2.652;2023-03-05T02:00:06;7.98;83.34
68450;SHT30;67758;39.572;2.652;2023-03-05T02:02:32;7.93;83.67
68450;SHT30;67758;39.572;2.652;2023-03-05T02:05:02;7.93;83.84
68450;SHT30;67758;39.572;2.652;2023-03-05T02:07:28;7.96;83.67
68450;SHT30;67758;39.572;2.652;2023-03-05T02:09:55;7.95;83.93
68450;SHT30;67758;39.572;2.652;2023-03-05T02:12:21;7.98;84.31
68450;SHT30;67758;39.572;2.652;2023-03-05T02:14:49;7.98;84.10
68450;SHT30;67758;39.572;2.652;2023-03-05T02:17:16;7.98;84.41
68450;SHT30;67758;39.572;2.652;2023-03-05T02:19:54;8.05;84.43
68450;SHT30;67758;39.572;2.652;2023-03-05T02:22:22;8.06;84.54
68450;SHT30;67758;39.572;2.652;2023-03-05T02:24:48;8.10;84.40
68450;SHT30;67758;39.572;2.652;2023-03-05T02:27:14;8.12;84.28
68450;SHT30;67758;39.572;2.652;2023-03-05T02:29:42;8.14;84.23
68450;SHT30;67758;39.572;2.652;2023-03-05T02:32:09;8.13;84.08
68450;SHT30;67758;39.572;2.652;2023-03-05T02:34:35;8.30;84.37
68450;SHT30;67758;39.572;2.652;2023-03-05T02:37:02;8.25;83.76
68450;SHT30;67758;39.572;2.652;2023-03-05T02:39:32;8.14;83.83
68450;SHT30;67758;39.572;2.652;2023-03-05T02:41:58;8.09;84.04
68450;SHT30;67758;39.572;2.652;2023-03-05T02:44:23;8.00;84.11
68450;SHT30;67758;39.572;2.652;2023-03-05T02:46:49;7.98;84.19
68450;SHT30;67758;39.572;2.652;2023-03-05T02:49:14;7.93;84.44
68450;SHT30;67758;39.572;2.652;2023-03-05T02:51:40;7.86;84.41
68450;SHT30;67758;39.572;2.652;2023-03-05T02:54:05;7.81;84.63
68450;SHT30;67758;39.572;2.652;2023-03-05T02:56:31;7.76;85.05
68450;SHT30;67758;39.572;2.652;2023-03-05T02:58:57;7.64;84.95
68450;SHT30;67758;39.572;2.652;2023-03-05T03:01:22;7.59;85.07
68450;SHT30;67758;39.572;2.652;2023-03-05T03:03:48;7.61;85.02
68450;SHT30;67758;39.572;2.652;2023-03-05T03:06:13;7.55;85.09
68450;SHT30;67758;39.572;2.652;2023-03-05T03:08:39;7.61;85.44
68450;SHT30;67758;39.572;2.652;2023-03-05T03:11:09;7.66;85.34
68450;SHT30;67758;39.572;2.652;2023-03-05T03:13:37;7.69;85.38
68450;SHT30;67758;39.572;2.652;2023-03-05T03:16:08;7.68;85.16
68450;SHT30;67758;39.572;2.652;2023-03-05T03:18:35;7.71;85.13
68450;SHT30;67758;39.572;2.652;2023-03-05T03:21:01;7.69;85.18
68450;SHT30;67758;39.572;2.652;2023-03-05T03:23:27;7.69;85.30
68450;SHT30;67758;39.572;2.652;2023-03-05T03:25:53;7.59;84.69
68450;SHT30;67758;39.572;2.652;2023-03-05T03:28:19;7.58;84.62
68450;SHT30;67758;39.572;2.652;2023-03-05T03:30:44;7.54;84.67
68450;SHT30;67758;39.572;2.652;2023-03-05T03:33:10;7.52;84.69
68450;SHT30;67758;39.572;2.652;2023-03-05T03:35:36;7.45;84.94
68450;SHT30;67758;39.572;2.652;2023-03-05T03:38:01;7.48;84.71
68450;SHT30;67758;39.572;2.652;2023-03-05T03:40:27;7.71;85.68
68450;SHT30;67758;39.572;2.652;2023-03-05T03:42:53;7.61;85.06
68450;SHT30;67758;39.572;2.652;2023-03-05T03:45:19;7.62;85.12
68450;SHT30;67758;39.572;2.652;2023-03-05T03:47:49;7.56;85.09
68450;SHT30;67758;39.572;2.652;2023-03-05T03:50:15;7.54;85.17
68450;SHT30;67758;39.572;2.652;2023-03-05T03:52:40;7.62;85.35
68450;SHT30;67758;39.572;2.652;2023-03-05T03:55:06;7.59;85.31
68450;SHT30;67758;39.572;2.652;2023-03-05T03:57:32;7.56;85.26
68450;SHT30;67758;39.572;2.652;2023-03-05T03:59:58;7.59;85.16
68450;SHT30;67758;39.572;2.652;2023-03-05T04:02:25;7.52;84.86
68450;SHT30;67758;39.572;2.652;2023-03-05T04:04:51;7.52;84.73
68450;SHT30;67758;39.572;2.652;2023-03-05T04:07:17;7.37;84.75
68450;SHT30;67758;39.572;2.652;2023-03-05T04:09:43;7.24;84.71
68450;SHT30;67758;39.572;2.652;2023-03-05T04:12:09;7.27;84.88
68450;SHT30;67758;39.572;2.652;2023-03-05T04:14:35;7.20;84.98
68450;SHT30;67758;39.572;2.652;2023-03-05T04:17:01;7.10;84.86
68450;SHT30;67758;39.572;2.652;2023-03-05T04:19:26;7.18;85.11
68450;SHT30;67758;39.572;2.652;2023-03-05T04:21:56;7.13;84.71
68450;SHT30;67758;39.572;2.652;2023-03-05T04:24:21;7.14;85.00
68450;SHT30;67758;39.572;2.652;2023-03-05T04:26:47;7.03;85.00
68450;SHT30;67758;39.572;2.652;2023-03-05T04:29:13;7.00;85.29
68450;SHT30;67758;39.572;2.652;2023-03-05T04:31:38;6.93;85.29
68450;SHT30;67758;39.572;2.652;2023-03-05T04:34:04;6.93;85.54
68450;SHT30;67758;39.572;2.652;2023-03-05T04:36:29;6.90;85.82
68450;SHT30;67758;39.572;2.652;2023-03-05T04:38:55;6.89;85.68
68450;SHT30;67758;39.572;2.652;2023-03-05T04:41:20;6.87;85.54
68450;SHT30;67758;39.572;2.652;2023-03-05T04:43:46;6.90;85.50
68450;SHT30;67758;39.572;2.652;2023-03-05T04:46:12;6.99;85.38
68450;SHT30;67758;39.572;2.652;2023-03-05T04:48:37;7.03;84.35
68450;SHT30;67758;39.572;2.652;2023-03-05T04:51:03;7.08;85.03
68450;SHT30;67758;39.572;2.652;2023-03-05T04:53:29;7.07;84.13
68450;SHT30;67758;39.572;2.652;2023-03-05T04:55:55;6.87;83.86
68450;SHT30;67758;39.572;2.652;2023-03-05T04:58:21;6.96;84.38
68450;SHT30;67758;39.572;2.652;2023-03-05T05:00:47;7.08;84.00
68450;SHT30;67758;39.572;2.652;2023-03-05T05:03:12;6.90;83.71
68450;SHT30;67758;39.572;2.652;2023-03-05T05:05:40;6.82;84.10
68450;SHT30;67758;39.572;2.652;2023-03-05T05:08:06;6.79;84.29
68450;SHT30;67758;39.572;2.652;2023-03-05T05:10:32;6.77;84.42
68450;SHT30;67758;39.572;2.652;2023-03-05T05:12:57;6.76;84.53
68450;SHT30;67758;39.572;2.652;2023-03-05T05:15:25;7.07;84.91
68450;SHT30;67758;39.572;2.652;2023-03-05T05:17:51;6.92;83.97
68450;SHT30;67758;39.572;2.652;2023-03-05T05:20:17;6.84;84.24
68450;SHT30;67758;39.572;2.652;2023-03-05T05:22:42;6.72;84.28
68450;SHT30;67758;39.572;2.652;2023-03-05T05:25:08;6.72;84.42
68450;SHT30;67758;39.572;2.652;2023-03-05T05:27:35;6.69;84.75
68450;SHT30;67758;39.572;2.652;2023-03-05T05:30:01;6.69;84.77
68450;SHT30;67758;39.572;2.652;2023-03-05T05:32:26;6.68;84.52
68450;SHT30;67758;39.572;2.652;2023-03-05T05:34:58;6.72;84.68
68450;SHT30;67758;39.572;2.652;2023-03-05T05:37:25;6.65;84.73
68450;SHT30;67758;39.572;2.652;2023-03-05T05:39:51;6.61;84.76
68450;SHT30;67758;39.572;2.652;2023-03-05T05:42:18;6.59;84.97
68450;SHT30;67758;39.572;2.652;2023-03-05T05:44:44;6.63;84.91
68450;SHT30;67758;39.572;2.652;2023-03-05T05:47:11;6.73;84.67
68450;SHT30;67758;39.572;2.652;2023-03-05T05:49:37;6.79;84.42
68450;SHT30;67758;39.572;2.652;2023-03-05T05:52:02;6.86;84.22
68450;SHT30;67758;39.572;2.652;2023-03-05T05:54:28;6.90;83.83
68450;SHT30;67758;39.572;2.652;2023-03-05T05:56:54;7.17;84.11
68450;SHT30;67758;39.572;2.652;2023-03-05T05:59:19;7.21;83.14
68450;SHT30;67758;39.572;2.652;2023-03-05T06:01:45;7.01;82.78
68450;SHT30;67758;39.572;2.652;2023-03-05T06:04:11;7.13;83.40
68450;SHT30;67758;39.572;2.652;2023-03-05T06:06:36;7.04;82.94
68450;SHT30;67758;39.572;2.652;2023-03-05T06:09:03;6.87;83.03
68450;SHT30;67758;39.572;2.652;2023-03-05T06:11:28;6.83;83.31
68450;SHT30;67758;39.572;2.652;2023-03-05T06:13:54;6.84;83.57
68450;SHT30;67758;39.572;2.652;2023-03-05T06:16:22;7.13;83.54
68450;SHT30;67758;39.572;2.652;2023-03-05T06:18:52;7.38;83.00
68450;SHT30;67758;39.572;2.652;2023-03-05T06:21:18;7.37;82.04
68450;SHT30;67758;39.572;2.652;2023-03-05T06:23:45;7.07;82.75
68450;SHT30;67758;39.572;2.652;2023-03-05T06:26:14;7.07;83.10
68450;SHT30;67758;39.572;2.652;2023-03-05T06:28:40;7.03;83.23
68450;SHT30;67758;39.572;2.652;2023-03-05T06:33:33;7.01;83.34
68450;SHT30;67758;39.572;2.652;2023-03-05T06:36:01;7.35;84.11
68450;SHT30;67758;39.572;2.652;2023-03-05T06:38:27;7.55;82.82
68450;SHT30;67758;39.572;2.652;2023-03-05T06:40:52;7.32;82.18
68450;SHT30;67758;39.572;2.652;2023-03-05T06:43:18;7.14;83.20
68450;SHT30;67758;39.572;2.652;2023-03-05T06:45:44;6.99;83.69
68450;SHT30;67758;39.572;2.652;2023-03-05T06:48:09;6.97;84.20
68450;SHT30;67758;39.572;2.652;2023-03-05T06:50:36;7.00;84.32
68450;SHT30;67758;39.572;2.652;2023-03-05T06:53:02;6.96;84.36
68450;SHT30;67758;39.572;2.652;2023-03-05T06:55:28;6.97;84.35
68450;SHT30;67758;39.572;2.652;2023-03-05T06:57:54;6.92;84.46
68450;SHT30;67758;39.572;2.652;2023-03-05T07:00:20;7.03;84.09
68450;SHT30;67758;39.572;2.652;2023-03-05T07:02:46;6.86;84.12
68450;SHT30;67758;39.572;2.652;2023-03-05T07:05:12;6.92;84.43
68450;SHT30;67758;39.572;2.652;2023-03-05T07:07:37;6.94;83.75
68450;SHT30;67758;39.572;2.652;2023-03-05T07:10:04;7.01;83.77
68450;SHT30;67758;39.572;2.652;2023-03-05T07:12:32;7.18;83.50
68450;SHT30;67758;39.572;2.652;2023-03-05T07:14:58;7.30;82.93
68450;SHT30;67758;39.572;2.652;2023-03-05T07:17:25;7.37;82.68
68450;SHT30;67758;39.572;2.652;2023-03-05T07:19:51;7.31;82.66
68450;SHT30;67758;39.572;2.652;2023-03-05T07:22:16;7.37;82.47
68450;SHT30;67758;39.572;2.652;2023-03-05T07:24:42;7.59;81.96
68450;SHT30;67758;39.572;2.652;2023-03-05T07:27:08;7.52;81.14
68450;SHT30;67758;39.572;2.652;2023-03-05T07:29:33;7.50;81.48
68450;SHT30;67758;39.572;2.652;2023-03-05T07:31:59;7.51;81.78
68450;SHT30;67758;39.572;2.652;2023-03-05T07:34:24;7.59;81.77
68450;SHT30;67758;39.572;2.652;2023-03-05T07:36:50;7.65;81.80
68450;SHT30;67758;39.572;2.652;2023-03-05T07:39:17;7.78;81.39
68450;SHT30;67758;39.572;2.652;2023-03-05T07:41:46;7.78;81.85
68450;SHT30;67758;39.572;2.652;2023-03-05T07:44:14;7.71;81.83
68450;SHT30;67758;39.572;2.652;2023-03-05T07:46:40;7.88;81.60
68450;SHT30;67758;39.572;2.652;2023-03-05T07:49:06;8.16;81.12
68450;SHT30;67758;39.572;2.652;2023-03-05T07:51:31;8.22;80.88
68450;SHT30;67758;39.572;2.652;2023-03-05T07:53:58;8.41;80.32
68450;SHT30;67758;39.572;2.652;2023-03-05T07:58:51;8.67;79.94
68450;SHT30;67758;39.572;2.652;2023-03-05T08:01:16;8.81;79.42
68450;SHT30;67758;39.572;2.652;2023-03-05T08:03:42;8.98;78.99
68450;SHT30;67758;39.572;2.652;2023-03-05T08:06:09;9.04;78.96
68450;SHT30;67758;39.572;2.652;2023-03-05T08:08:36;9.04;78.92
68450;SHT30;67758;39.572;2.652;2023-03-05T08:11:03;9.11;79.27
68450;SHT30;67758;39.572;2.652;2023-03-05T08:13:29;9.14;79.04
68450;SHT30;67758;39.572;2.652;2023-03-05T08:15:55;9.15;79.11
68450;SHT30;67758;39.572;2.652;2023-03-05T08:18:20;9.08;79.11
68450;SHT30;67758;39.572;2.652;2023-03-05T08:20:46;9.22;79.51
68450;SHT30;67758;39.572;2.652;2023-03-05T08:23:12;9.26;78.93
68450;SHT30;67758;39.572;2.652;2023-03-05T08:25:37;9.44;78.99
68450;SHT30;67758;39.572;2.652;2023-03-05T08:28:03;9.44;78.34
68450;SHT30;67758;39.572;2.652;2023-03-05T08:30:29;9.50;78.84
68450;SHT30;67758;39.572;2.652;2023-03-05T08:32:54;9.47;78.17
68450;SHT30;67758;39.572;2.652;2023-03-05T08:35:21;9.52;78.28
68450;SHT30;67758;39.572;2.652;2023-03-05T08:37:47;9.54;78.26
68450;SHT30;67758;39.572;2.652;2023-03-05T08:40:13;9.56;78.22
68450;SHT30;67758;39.572;2.652;2023-03-05T08:42:39;9.62;78.03
68450;SHT30;67758;39.572;2.652;2023-03-05T08:45:05;9.69;77.88
68450;SHT30;67758;39.572;2.652;2023-03-05T08:47:31;9.74;77.81
68450;SHT30;67758;39.572;2.652;2023-03-05T08:49:56;9.89;77.69
68450;SHT30;67758;39.572;2.652;2023-03-05T08:52:23;9.97;77.46
68450;SHT30;67758;39.572;2.652;2023-03-05T08:54:49;10.18;77.31
68450;SHT30;67758;39.572;2.652;2023-03-05T08:57:14;10.42;78.23
68450;SHT30;67758;39.572;2.652;2023-03-05T08:59:40;10.61;76.87
68450;SHT30;67758;39.572;2.652;2023-03-05T09:02:06;10.71;76.25
68450;SHT30;67758;39.572;2.652;2023-03-05T09:04:31;10.78;77.35
68450;SHT30;67758;39.572;2.652;2023-03-05T09:06:57;10.85;77.09
68450;SHT30;67758;39.572;2.652;2023-03-05T09:09:22;10.86;76.91
68450;SHT30;67758;39.572;2.652;2023-03-05T09:11:49;10.99;77.63
68450;SHT30;67758;39.572;2.652;2023-03-05T09:14:16;11.22;77.89
68450;SHT30;67758;39.572;2.652;2023-03-05T09:16:42;11.47;78.16
68450;SHT30;67758;39.572;2.652;2023-03-05T09:19:08;11.70;77.31
68450;SHT30;67758;39.572;2.652;2023-03-05T09:21:35;11.85;76.46
68450;SHT30;67758;39.572;2.652;2023-03-05T09:24:01;12.01;76.40
68450;SHT30;67758;39.572;2.652;2023-03-05T09:26:27;12.09;76.39
68450;SHT30;67758;39.572;2.652;2023-03-05T09:28:53;12.24;75.58
68450;SHT30;67758;39.572;2.652;2023-03-05T09:31:19;12.42;77.09
68450;SHT30;67758;39.572;2.652;2023-03-05T09:33:46;12.59;77.01
68450;SHT30;67758;39.572;2.652;2023-03-05T09:36:18;12.75;77.22
68450;SHT30;67758;39.572;2.652;2023-03-05T09:38:45;12.84;76.81
68450;SHT30;67758;39.572;2.652;2023-03-05T09:51:16;13.25;74.97
68450;SHT30;67758;39.572;2.652;2023-03-05T09:56:27;13.38;74.39
68450;SHT30;67758;39.572;2.652;2023-03-05T09:58:58;13.47;74.52
68450;SHT30;67758;39.572;2.652;2023-03-05T10:01:28;13.62;74.28
68450;SHT30;67758;39.572;2.652;2023-03-05T10:09:14;14.08;73.25
68450;SHT30;67758;39.572;2.652;2023-03-05T10:11:54;14.17;72.75
68450;SHT30;67758;39.572;2.652;2023-03-05T10:14:33;14.08;72.52
68450;SHT30;67758;39.572;2.652;2023-03-05T10:20:23;14.33;71.92
68450;SHT30;67758;39.572;2.652;2023-03-05T10:28:56;14.89;70.11
68450;SHT30;67758;39.572;2.652;2023-03-05T10:42:22;19.21;57.24
68450;SHT30;67758;39.572;2.652;2023-03-05T10:47:24;19.20;56.73
68450;SHT30;67758;39.572;2.652;2023-03-05T10:49:56;19.48;56.24
68450;SHT30;67758;39.572;2.652;2023-03-05T10:52:34;18.85;58.15
68450;SHT30;67758;39.572;2.652;2023-03-05T10:55:11;19.40;56.88
68450;SHT30;67758;39.572;2.652;2023-03-05T10:57:37;19.68;56.16
68450;SHT30;67758;39.572;2.652;2023-03-05T11:02:57;17.57;62.37
68450;SHT30;67758;39.572;2.652;2023-03-05T11:05:46;19.40;58.46
68450;SHT30;67758;39.572;2.652;2023-03-05T11:08:31;20.32;56.04
68450;SHT30;67758;39.572;2.652;2023-03-05T11:13:58;18.51;60.87
68450;SHT30;67758;39.572;2.652;2023-03-05T11:16:33;17.30;63.84
68450;SHT30;67758;39.572;2.652;2023-03-05T11:19:19;16.82;65.88
68450;SHT30;67758;39.572;2.652;2023-03-05T11:22:14;16.57;67.94
68450;SHT30;67758;39.572;2.652;2023-03-05T11:24:40;16.42;68.89
68450;SHT30;67758;39.572;2.652;2023-03-05T11:27:29;16.68;67.48
68450;SHT30;67758;39.572;2.652;2023-03-05T11:29:55;16.73;67.77
68450;SHT30;67758;39.572;2.652;2023-03-05T11:32:24;19.00;61.22
68450;SHT30;67758;39.572;2.652;2023-03-05T11:34:52;17.57;64.31
68450;SHT30;67758;39.572;2.652;2023-03-05T11:37:30;16.69;67.43
68450;SHT30;67758;39.572;2.652;2023-03-05T11:40:19;16.58;66.78
68450;SHT30;67758;39.572;2.652;2023-03-05T11:42:53;16.14;68.36
68450;SHT30;67758;39.572;2.652;2023-03-05T11:45:23;15.89;69.69
68450;SHT30;67758;39.572;2.652;2023-03-05T11:47:53;16.18;69.23
68450;SHT30;67758;39.572;2.652;2023-03-05T11:50:23;16.30;68.58
68450;SHT30;67758;39.572;2.652;2023-03-05T11:55:31;15.66;71.24
68450;SHT30;67758;39.572;2.652;2023-03-05T12:00:44;15.77;70.60
68450;SHT30;67758;39.572;2.652;2023-03-05T12:03:14;18.34;63.11
68450;SHT30;67758;39.572;2.652;2023-03-05T12:05:43;19.35;59.36
68450;SHT30;67758;39.572;2.652;2023-03-05T12:08:36;18.89;59.71
68450;SHT30;67758;39.572;2.652;2023-03-05T12:11:25;18.08;63.39
68450;SHT30;67758;39.572;2.652;2023-03-05T12:13:56;18.65;60.56
68450;SHT30;67758;39.572;2.652;2023-03-05T12:16:37;17.88;61.93
68450;SHT30;67758;39.572;2.652;2023-03-05T12:21:40;19.48;58.39
68450;SHT30;67758;39.572;2.652;2023-03-05T12:29:50;15.89;67.51
68450;SHT30;67758;39.572;2.652;2023-03-05T12:43:02;15.26;70.65
68450;SHT30;67758;39.572;2.652;2023-03-05T12:45:34;16.22;68.86
68450;SHT30;67758;39.572;2.652;2023-03-05T12:53:19;16.64;65.55
68450;SHT30;67758;39.572;2.652;2023-03-05T13:00:45;15.21;70.43
68450;SHT30;67758;39.572;2.652;2023-03-05T13:04:28;15.89;68.17
68450;SHT30;67758;39.572;2.652;2023-03-05T13:06:37;15.36;71.10
68450;SHT30;67758;39.572;2.652;2023-03-05T13:09:17;16.62;67.59
68450;SHT30;67758;39.572;2.652;2023-03-05T13:11:49;17.23;65.73
68450;SHT30;67758;39.572;2.652;2023-03-05T13:14:27;16.48;67.19
68450;SHT30;67758;39.572;2.652;2023-03-05T13:16:53;17.15;64.96
68450;SHT30;67758;39.572;2.652;2023-03-05T13:19:19;16.52;67.34
68450;SHT30;67758;39.572;2.652;2023-03-05T13:21:59;16.22;68.57
68450;SHT30;67758;39.572;2.652;2023-03-05T13:24:26;16.25;68.28
68450;SHT30;67758;39.572;2.652;2023-03-05T13:26:53;16.31;68.04
68450;SHT30;67758;39.572;2.652;2023-03-05T13:29:21;16.07;68.18
68450;SHT30;67758;39.572;2.652;2023-03-05T13:31:57;16.76;65.85
68450;SHT30;67758;39.572;2.652;2023-03-05T13:34:25;16.18;67.69
68450;SHT30;67758;39.572;2.652;2023-03-05T13:36:55;16.11;68.58
68450;SHT30;67758;39.572;2.652;2023-03-05T13:39:28;16.89;66.63
68450;SHT30;67758;39.572;2.652;2023-03-05T13:42:13;16.89;67.06
68450;SHT30;67758;39.572;2.652;2023-03-05T13:44:39;16.76;66.67
68450;SHT30;67758;39.572;2.652;2023-03-05T13:47:17;17.02;66.34
68450;SHT30;67758;39.572;2.652;2023-03-05T13:49:44;16.71;66.68
68450;SHT30;67758;39.572;2.652;2023-03-05T13:52:12;17.09;66.14
68450;SHT30;67758;39.572;2.652;2023-03-05T13:54:47;16.73;66.95
68450;SHT30;67758;39.572;2.652;2023-03-05T13:59:56;17.42;63.42
68450;SHT30;67758;39.572;2.652;2023-03-05T14:02:26;17.53;62.85
68450;SHT30;67758;39.572;2.652;2023-03-05T14:04:54;17.32;64.09
68450;SHT30;67758;39.572;2.652;2023-03-05T14:07:38;17.29;65.01
68450;SHT30;67758;39.572;2.652;2023-03-05T14:12:50;17.44;65.42
68450;SHT30;67758;39.572;2.652;2023-03-05T14:15:27;17.53;64.61
68450;SHT30;67758;39.572;2.652;2023-03-05T14:21:06;16.58;66.48
68450;SHT30;67758;39.572;2.652;2023-03-05T14:23:45;16.68;66.79
68450;SHT30;67758;39.572;2.652;2023-03-05T14:26:30;17.54;64.30
68450;SHT30;67758;39.572;2.652;2023-03-05T14:31:25;17.37;64.20
68450;SHT30;67758;39.572;2.652;2023-03-05T14:33:52;17.30;64.18
68450;SHT30;67758;39.572;2.652;2023-03-05T14:36:22;17.40;63.92
68450;SHT30;67758;39.572;2.652;2023-03-05T14:38:49;17.70;63.15
68450;SHT30;67758;39.572;2.652;2023-03-05T14:41:32;17.66;63.46
68450;SHT30;67758;39.572;2.652;2023-03-05T14:43:59;17.42;64.16
68450;SHT30;67758;39.572;2.652;2023-03-05T14:46:25;16.98;65.81
68450;SHT30;67758;39.572;2.652;2023-03-05T14:48:50;16.14;68.32
68450;SHT30;67758;39.572;2.652;2023-03-05T14:51:16;17.20;65.96
68450;SHT30;67758;39.572;2.652;2023-03-05T14:53:44;16.93;66.38
68450;SHT30;67758;39.572;2.652;2023-03-05T14:56:27;17.24;66.39
68450;SHT30;67758;39.572;2.652;2023-03-05T14:58:54;17.42;66.03
68450;SHT30;67758;39.572;2.652;2023-03-05T15:01:20;17.47;65.33
68450;SHT30;67758;39.572;2.652;2023-03-05T15:03:46;17.18;66.20
68450;SHT30;67758;39.572;2.652;2023-03-05T15:06:29;17.36;65.49
68450;SHT30;67758;39.572;2.652;2023-03-05T15:08:59;17.78;64.69
68450;SHT30;67758;39.572;2.652;2023-03-05T15:11:24;17.54;65.49
68450;SHT30;67758;39.572;2.652;2023-03-05T15:13:50;17.22;66.52
68450;SHT30;67758;39.572;2.652;2023-03-05T15:16:16;17.23;67.17
68450;SHT30;67758;39.572;2.652;2023-03-05T15:18:42;16.88;67.40
68450;SHT30;67758;39.572;2.652;2023-03-05T15:21:08;16.58;68.09
68450;SHT30;67758;39.572;2.652;2023-03-05T15:23:34;16.35;68.96
68450;SHT30;67758;39.572;2.652;2023-03-05T15:26:03;16.73;68.45
68450;SHT30;67758;39.572;2.652;2023-03-05T15:28:34;16.75;68.88
68450;SHT30;67758;39.572;2.652;2023-03-05T15:31:01;16.10;70.31
68450;SHT30;67758;39.572;2.652;2023-03-05T15:33:27;15.82;71.32
68450;SHT30;67758;39.572;2.652;2023-03-05T15:35:53;15.42;72.26
68450;SHT30;67758;39.572;2.652;2023-03-05T15:38:19;15.14;73.82
68450;SHT30;67758;39.572;2.652;2023-03-05T15:40:45;15.21;74.03
68450;SHT30;67758;39.572;2.652;2023-03-05T15:43:11;15.14;74.31
68450;SHT30;67758;39.572;2.652;2023-03-05T15:45:37;15.14;74.21
68450;SHT30;67758;39.572;2.652;2023-03-05T15:48:03;14.84;75.46
68450;SHT30;67758;39.572;2.652;2023-03-05T15:50:29;14.71;75.65
68450;SHT30;67758;39.572;2.652;2023-03-05T15:52:54;14.53;76.78
68450;SHT30;67758;39.572;2.652;2023-03-05T15:55:21;14.53;76.87
68450;SHT30;67758;39.572;2.652;2023-03-05T15:57:48;14.56;76.62
68450;SHT30;67758;39.572;2.652;2023-03-05T16:00:16;14.48;76.39
68450;SHT30;67758;39.572;2.652;2023-03-05T16:02:42;14.37;77.25
68450;SHT30;67758;39.572;2.652;2023-03-05T16:05:09;14.44;77.01
68450;SHT30;67758;39.572;2.652;2023-03-05T16:07:36;14.53;76.85
68450;SHT30;67758;39.572;2.652;2023-03-05T16:10:03;14.84;76.44
68450;SHT30;67758;39.572;2.652;2023-03-05T16:12:36;15.12;76.11
68450;SHT30;67758;39.572;2.652;2023-03-05T16:15:10;15.36;74.75
68450;SHT30;67758;39.572;2.652;2023-03-05T16:17:39;15.38;75.05
68450;SHT30;67758;39.572;2.652;2023-03-05T16:20:06;15.49;74.17
68450;SHT30;67758;39.572;2.652;2023-03-05T16:22:32;14.99;75.53
68450;SHT30;67758;39.572;2.652;2023-03-05T16:24:57;14.88;76.17
68450;SHT30;67758;39.572;2.652;2023-03-05T16:27:27;14.99;75.85
68450;SHT30;67758;39.572;2.652;2023-03-05T16:30:13;15.59;74.03
68450;SHT30;67758;39.572;2.652;2023-03-05T16:32:39;15.09;74.84
68450;SHT30;67758;39.572;2.652;2023-03-05T16:35:05;15.63;73.71
68450;SHT30;67758;39.572;2.652;2023-03-05T16:37:30;15.67;73.28
68450;SHT30;67758;39.572;2.652;2023-03-05T16:39:57;16.09;71.91
68450;SHT30;67758;39.572;2.652;2023-03-05T16:42:23;15.99;72.03
68450;SHT30;67758;39.572;2.652;2023-03-05T16:44:49;15.58;73.36
68450;SHT30;67758;39.572;2.652;2023-03-05T16:47:15;15.28;74.27
68450;SHT30;67758;39.572;2.652;2023-03-05T16:49:40;14.95;76.08
68450;SHT30;67758;39.572;2.652;2023-03-05T16:52:06;14.71;76.93
68450;SHT30;67758;39.572;2.652;2023-03-05T16:54:32;14.47;77.64
68450;SHT30;67758;39.572;2.652;2023-03-05T16:56:58;14.32;78.60
68450;SHT30;67758;39.572;2.652;2023-03-05T16:59:26;14.25;78.97
68450;SHT30;67758;39.572;2.652;2023-03-05T17:01:51;14.54;78.35
68450;SHT30;67758;39.572;2.652;2023-03-05T17:04:17;15.35;75.25
68450;SHT30;67758;39.572;2.652;2023-03-05T17:06:47;15.59;73.82
68450;SHT30;67758;39.572;2.652;2023-03-05T17:09:13;15.65;73.31
68450;SHT30;67758;39.572;2.652;2023-03-05T17:11:39;15.65;73.36
68450;SHT30;67758;39.572;2.652;2023-03-05T17:14:05;14.92;75.51
68450;SHT30;67758;39.572;2.652;2023-03-05T17:16:31;14.50;77.37
68450;SHT30;67758;39.572;2.652;2023-03-05T17:18:56;14.32;78.38
68450;SHT30;67758;39.572;2.652;2023-03-05T17:21:22;14.08;79.09
68450;SHT30;67758;39.572;2.652;2023-03-05T17:23:48;14.01;79.63
68450;SHT30;67758;39.572;2.652;2023-03-05T17:26:16;13.86;79.75